Time;durP1;ratioP1;P1;durP2;ratioP2;P2;SDS_P1;SDS_P2;PMS_P1;PMS_P2;Temp;Humidity;BMP_temperature;BMP_pressure;BME280_temperature;BME280_humidity;BME280_pressure;Samples;Min_cycle;Max_cycle;Signal;HPM_P1;HPM_P2
2023/05/17 00:00:09;;;;;;;21.10;13.53;;;;;;;13.38;nan;100017.59;4206202;28;24396;-64
2023/05/17 00:02:36;;;;;;;22.53;14.37;;;;;;;13.31;84.57;100015.59;4209518;28;21274;-65
2023/05/17 00:05:03;;;;;;;21.20;13.50;;;;;;;13.21;84.90;100017.66;4211015;28;20290;-66
2023/05/17 00:07:30;;;;;;;22.60;13.20;;;;;;;13.25;84.65;100012.72;4208925;28;20236;-61
2023/05/17 00:09:56;;;;;;;18.57;12.03;;;;;;;13.17;84.55;100021.75;4212597;28;23619;-63
2023/05/17 00:12:23;;;;;;;18.07;12.70;;;;;;;13.03;85.01;100007.00;4213954;28;23570;-63
2023/05/17 00:14:49;;;;;;;20.10;12.23;;;;;;;13.06;85.15;100013.97;4216640;28;22103;-65
2023/05/17 00:17:16;;;;;;;20.27;12.33;;;;;;;13.14;84.74;100024.81;4208157;28;21148;-63
2023/05/17 00:19:42;;;;;;;19.77;11.43;;;;;;;13.08;84.66;100014.63;4220825;28;20240;-62
2023/05/17 00:22:09;;;;;;;18.13;11.30;;;;;;;13.07;84.73;100016.50;4209528;28;20652;-63
2023/05/17 00:24:35;;;;;;;15.73;11.20;;;;;;;13.02;85.33;100007.19;4210816;28;22297;-62
2023/05/17 00:27:02;;;;;;;17.63;11.90;;;;;;;12.83;86.24;100010.13;4226701;28;20510;-64
2023/05/17 00:29:29;;;;;;;17.60;11.17;;;;;;;12.90;86.16;100014.84;4220477;28;20282;-65
2023/05/17 00:31:55;;;;;;;16.33;11.63;;;;;;;12.88;86.30;100012.28;4215347;28;20236;-63
2023/05/17 00:34:22;;;;;;;16.87;11.53;;;;;;;12.82;86.46;100013.84;4217573;28;20288;-63
2023/05/17 00:36:48;;;;;;;18.47;12.80;;;;;;;12.72;87.36;100021.34;4218395;28;21143;-63
2023/05/17 00:39:15;;;;;;;18.83;13.00;;;;;;;12.74;87.13;100013.00;4207257;28;20246;-61
2023/05/17 00:41:41;;;;;;;16.83;12.70;;;;;;;12.78;86.82;100009.78;4212512;28;21157;-63
2023/05/17 00:44:08;;;;;;;16.93;12.13;;;;;;;12.57;87.97;100009.47;4203814;28;20240;-62
2023/05/17 00:46:34;;;;;;;21.67;13.00;;;;;;;12.67;87.54;100016.41;4210905;28;20244;-62
2023/05/17 00:49:01;;;;;;;17.33;12.90;;;;;;;12.62;87.97;100016.09;4212242;28;21845;-65
2023/05/17 00:51:28;;;;;;;17.47;13.10;;;;;;;12.63;87.66;100020.50;4215051;28;20315;-64
2023/05/17 00:53:55;;;;;;;16.33;12.43;;;;;;;12.60;87.93;100017.28;4215407;28;21393;-67
2023/05/17 00:56:22;;;;;;;17.07;12.63;;;;;;;12.47;88.60;100023.22;4224633;28;23379;-62
2023/05/17 00:58:49;;;;;;;19.90;13.63;;;;;;;12.51;88.52;100021.84;4211581;28;20307;-65
2023/05/17 01:01:16;;;;;;;19.70;14.20;;;;;;;12.52;88.39;100012.69;4208234;28;20236;-63
2023/05/17 01:03:42;;;;;;;21.93;15.30;;;;;;;12.53;88.68;100014.38;4212064;28;21598;-64
2023/05/17 01:06:09;;;;;;;20.00;14.43;;;;;;;12.45;89.08;100015.25;4212465;28;21642;-64
2023/05/17 01:08:36;;;;;;;25.23;13.87;;;;;;;12.53;88.52;100011.69;4215129;28;20608;-62
2023/05/17 01:11:15;;;;;;;20.50;14.10;;;;;;;12.49;89.04;100015.75;4211119;28;21048;-65
2023/05/17 01:14:00;;;;;;;19.83;13.70;;;;;;;12.49;89.14;100008.44;4212621;28;22866;-64
2023/05/17 01:16:34;;;;;;;20.17;14.37;;;;;;;12.41;89.24;100011.16;4216192;28;20309;-64
2023/05/17 01:19:12;;;;;;;22.63;14.70;;;;;;;12.40;89.56;100008.63;4221939;28;20239;-63
2023/05/17 01:22:07;;;;;;;23.23;15.03;;;;;;;12.40;89.73;100008.63;4222147;28;22857;-65
2023/05/17 01:24:50;;;;;;;21.43;15.07;;;;;;;12.43;89.26;100011.84;4216660;28;21681;-62
2023/05/17 01:27:17;;;;;;;21.63;15.03;;;;;;;12.29;90.13;100001.69;4197157;28;20599;-65
2023/05/17 01:29:44;;;;;;;23.47;15.13;;;;;;;12.22;90.59;99997.94;4211208;28;20580;-63
2023/05/17 01:32:12;;;;;;;21.73;15.00;;;;;;;12.20;90.72;99998.09;4208831;28;20294;-63
2023/05/17 01:34:40;;;;;;;25.67;16.77;;;;;;;12.14;91.17;99994.22;4215957;28;20620;-64
2023/05/17 01:37:06;;;;;;;25.27;15.20;;;;;;;12.16;91.47;100000.28;4210392;28;21411;-64
2023/05/17 01:39:33;;;;;;;21.53;16.80;;;;;;;12.17;91.22;99999.28;4218670;28;22609;-64
2023/05/17 01:42:22;;;;;;;24.23;16.53;;;;;;;12.25;90.96;100012.03;4215997;28;20242;-63
2023/05/17 01:45:11;;;;;;;22.23;16.37;;;;;;;12.17;91.48;100006.59;4206953;28;20295;-65
2023/05/17 01:47:57;;;;;;;23.83;16.37;;;;;;;12.09;92.20;100002.00;4194277;28;20342;-65
2023/05/17 01:50:26;;;;;;;26.03;17.00;;;;;;;12.10;92.29;100003.69;4223240;28;20625;-64
2023/05/17 01:52:58;;;;;;;24.97;16.40;;;;;;;12.13;92.39;100003.38;4197120;28;20228;-61
2023/05/17 01:55:41;;;;;;;28.67;17.83;;;;;;;12.16;91.60;100008.44;4204359;28;20695;-62
2023/05/17 01:58:09;;;;;;;24.07;17.27;;;;;;;12.09;92.03;99993.84;4203001;28;20451;-62
2023/05/17 02:00:38;;;;;;;29.40;18.40;;;;;;;12.01;92.64;100002.84;4211659;28;21918;-66
2023/05/17 02:03:05;;;;;;;26.93;17.93;;;;;;;12.05;92.25;100004.19;4211366;28;21117;-63
2023/05/17 02:05:31;;;;;;;27.33;18.47;;;;;;;12.09;92.29;100009.28;4222680;28;20232;-64
2023/05/17 02:07:58;;;;;;;25.80;17.17;;;;;;;12.10;92.50;100006.41;4203541;28;20265;-64
2023/05/17 02:10:24;;;;;;;24.73;18.00;;;;;;;12.16;92.08;100010.31;4208888;28;20244;-62
2023/05/17 02:12:51;;;;;;;28.43;18.10;;;;;;;12.05;92.03;100009.63;4220215;28;20639;-62
2023/05/17 02:15:17;;;;;;;29.87;18.77;;;;;;;12.00;92.50;100011.16;4215853;28;22884;-63
2023/05/17 02:17:44;;;;;;;30.93;17.97;;;;;;;11.98;92.79;100013.19;4209779;28;22307;-65
2023/05/17 02:20:11;;;;;;;28.13;19.03;;;;;;;11.94;93.10;100006.34;4201419;28;21715;-63
2023/05/17 02:22:38;;;;;;;28.40;19.20;;;;;;;11.90;93.43;100011.25;4208978;28;20280;-61
2023/05/17 02:25:06;;;;;;;31.07;20.57;;;;;;;11.87;93.80;100012.44;4212337;28;20224;-63
2023/05/17 02:27:32;;;;;;;33.03;20.90;;;;;;;11.96;93.58;100013.31;4208701;28;20237;-64
2023/05/17 02:30:00;;;;;;;29.73;20.57;;;;;;;11.92;93.90;100022.78;4220454;28;21082;-64
2023/05/17 02:32:27;;;;;;;36.13;22.70;;;;;;;11.88;94.22;100025.00;4217608;28;20240;-63
2023/05/17 02:34:55;;;;;;;38.57;24.63;;;;;;;11.82;94.37;100017.53;4218766;28;20469;-63
2023/05/17 02:37:21;;;;;;;37.47;24.97;;;;;;;11.94;94.24;100017.19;4228458;28;23522;-61
2023/05/17 02:39:48;;;;;;;38.27;23.63;;;;;;;11.90;93.87;100019.38;4205729;28;20306;-62
2023/05/17 02:42:14;;;;;;;39.57;26.63;;;;;;;11.91;94.29;100012.13;4216687;28;20389;-63
2023/05/17 02:44:41;;;;;;;39.17;24.93;;;;;;;11.78;94.33;100015.31;4204641;28;21181;-61
2023/05/17 02:47:07;;;;;;;40.80;26.73;;;;;;;11.86;94.33;100021.59;4215733;28;20240;-61
2023/05/17 02:49:34;;;;;;;38.87;26.27;;;;;;;11.81;94.77;100029.38;4213640;28;20254;-63
2023/05/17 02:52:01;;;;;;;41.63;26.70;;;;;;;11.73;94.94;100026.66;4201302;28;20550;-63
2023/05/17 02:54:27;;;;;;;40.80;26.70;;;;;;;11.85;94.89;100030.78;4217661;28;20235;-64
2023/05/17 02:56:54;;;;;;;42.13;27.33;;;;;;;11.81;94.79;100033.97;4214635;28;20588;-62
2023/05/17 02:59:21;;;;;;;44.37;27.13;;;;;;;11.71;95.30;100034.97;4215575;28;21059;-62
2023/05/17 03:01:48;;;;;;;44.43;28.70;;;;;;;11.71;95.72;100036.81;4205286;28;20235;-62
2023/05/17 03:04:15;;;;;;;45.57;29.10;;;;;;;11.72;96.03;100041.22;4207756;28;20233;-64
2023/05/17 03:06:42;;;;;;;41.50;27.30;;;;;;;11.80;96.04;100040.41;4206608;28;21776;-62
2023/05/17 03:09:08;;;;;;;45.03;27.83;;;;;;;11.78;95.95;100028.88;4207433;28;20240;-63
2023/05/17 03:11:35;;;;;;;42.80;27.90;;;;;;;11.83;95.74;100037.34;4221888;28;20378;-63
2023/05/17 03:14:02;;;;;;;42.80;26.40;;;;;;;11.87;95.72;100042.28;4202680;28;20252;-63
2023/05/17 03:16:29;;;;;;;41.70;26.53;;;;;;;11.82;95.49;100043.81;4202119;28;20233;-62
2023/05/17 03:18:55;;;;;;;41.10;26.27;;;;;;;11.86;95.48;100043.28;4211858;28;26180;-62
2023/05/17 03:21:22;;;;;;;39.90;26.47;;;;;;;11.84;95.65;100050.75;4213833;28;25770;-64
2023/05/17 03:23:48;;;;;;;42.30;27.03;;;;;;;11.82;95.91;100050.06;4220825;28;20232;-64
2023/05/17 03:26:15;;;;;;;38.43;25.77;;;;;;;11.83;96.21;100051.78;4219850;28;20234;-62
2023/05/17 03:28:42;;;;;;;44.77;27.53;;;;;;;11.74;96.28;100050.88;4198911;28;20327;-63
2023/05/17 03:31:08;;;;;;;39.20;24.87;;;;;;;11.96;95.83;100045.88;4203203;28;20225;-62
2023/05/17 03:33:35;;;;;;;40.30;24.77;;;;;;;11.87;95.67;100036.84;4207076;28;20295;-62
2023/05/17 03:36:02;;;;;;;40.80;25.43;;;;;;;11.76;95.93;100037.19;4209818;28;21254;-62
2023/05/17 03:38:28;;;;;;;39.13;24.63;;;;;;;11.79;96.05;100053.09;4194857;28;20315;-63
2023/05/17 03:40:55;;;;;;;40.33;25.93;;;;;;;11.71;96.43;100056.66;4198740;28;20312;-62
2023/05/17 03:43:22;;;;;;;41.73;25.90;;;;;;;11.80;96.59;100053.97;4203487;28;20228;-62
2023/05/17 03:45:48;;;;;;;44.37;26.07;;;;;;;11.85;96.36;100059.72;4209703;28;20264;-62
2023/05/17 03:48:15;;;;;;;40.87;25.97;;;;;;;11.80;95.81;100048.53;4206532;28;20239;-62
2023/05/17 03:50:41;;;;;;;40.10;24.83;;;;;;;11.74;96.24;100052.75;4206421;28;20302;-62
2023/05/17 03:53:08;;;;;;;39.37;24.67;;;;;;;11.75;95.88;100051.75;4213476;28;20235;-64
2023/05/17 03:55:35;;;;;;;37.53;24.17;;;;;;;11.66;96.29;100053.59;4204795;28;20286;-62
2023/05/17 03:58:02;;;;;;;34.07;22.20;;;;;;;11.73;96.33;100051.06;4211371;28;21846;-63
2023/05/17 04:00:28;;;;;;;31.67;21.70;;;;;;;11.74;95.78;100059.00;4214131;28;20245;-61
2023/05/17 04:02:55;;;;;;;30.90;20.80;;;;;;;11.76;95.73;100056.16;4202906;28;21126;-62
2023/05/17 04:05:21;;;;;;;34.23;20.77;;;;;;;11.65;95.63;100064.56;4207222;28;20488;-62
2023/05/17 04:07:48;;;;;;;29.80;19.33;;;;;;;11.67;95.87;100060.69;4202886;28;20245;-62
2023/05/17 04:10:15;;;;;;;32.67;21.10;;;;;;;11.54;96.22;100066.59;4225609;28;20380;-64
2023/05/17 04:12:41;;;;;;;32.07;20.27;;;;;;;11.60;96.47;100059.63;4214087;28;20294;-62
2023/05/17 04:15:08;;;;;;;32.97;21.17;;;;;;;11.63;96.32;100066.63;4239374;28;21658;-64
2023/05/17 04:17:35;;;;;;;34.83;21.30;;;;;;;11.59;96.51;100066.09;4229775;28;20313;-61
2023/05/17 04:20:05;;;;;;;30.30;20.90;;;;;;;11.62;96.76;100073.91;4214177;28;20232;-63
2023/05/17 04:22:32;;;;;;;31.63;20.80;;;;;;;11.63;96.65;100069.34;4193211;28;22960;-65
2023/05/17 04:24:59;;;;;;;34.83;22.93;;;;;;;11.64;96.77;100079.16;4212183;28;21778;-65
2023/05/17 04:27:25;;;;;;;36.40;22.67;;;;;;;11.63;97.08;100072.03;4209430;28;20527;-59
2023/05/17 04:29:52;;;;;;;31.77;21.83;;;;;;;11.78;96.74;100072.25;4201074;28;21242;-61
2023/05/17 04:32:18;;;;;;;36.07;21.67;;;;;;;11.71;96.33;100083.75;4221670;28;20235;-61
2023/05/17 04:34:45;;;;;;;30.07;19.07;;;;;;;11.71;96.54;100075.63;4215603;28;20239;-63
2023/05/17 04:37:12;;;;;;;26.47;18.77;;;;;;;11.71;95.96;100075.63;4207939;28;20298;-61
2023/05/17 04:39:38;;;;;;;23.97;16.17;;;;;;;11.72;95.84;100073.75;4213131;28;22545;-63
2023/05/17 04:42:05;;;;;;;24.60;16.50;;;;;;;11.64;96.00;100069.16;4224603;28;20255;-63
2023/05/17 04:44:32;;;;;;;24.20;16.83;;;;;;;11.71;96.08;100080.19;4215732;28;22342;-64
2023/05/17 04:46:58;;;;;;;24.73;16.50;;;;;;;11.68;96.36;100081.38;4210338;28;21426;-62
2023/05/17 04:49:25;;;;;;;26.13;17.53;;;;;;;11.65;96.35;100087.13;4228649;28;20290;-66
2023/05/17 04:51:52;;;;;;;24.07;15.27;;;;;;;11.71;95.83;100086.47;4228447;28;20252;-66
2023/05/17 04:54:18;;;;;;;22.40;15.33;;;;;;;11.61;95.70;100083.03;4206919;28;20236;-65
2023/05/17 04:56:45;;;;;;;21.17;15.10;;;;;;;11.53;95.73;100092.00;4211589;28;20243;-66
2023/05/17 04:59:11;;;;;;;25.73;16.30;;;;;;;11.61;96.12;100095.75;4200741;28;20239;-68
2023/05/17 05:01:38;;;;;;;22.47;15.33;;;;;;;11.58;95.69;100107.78;4210698;28;20231;-66
2023/05/17 05:04:05;;;;;;;24.73;15.43;;;;;;;11.54;96.26;100107.25;4232244;28;20220;-67
2023/05/17 05:06:33;;;;;;;23.73;15.77;;;;;;;11.48;96.10;100107.88;4229440;28;20240;-67
2023/05/17 05:09:00;;;;;;;24.23;16.37;;;;;;;11.67;96.29;100104.06;4217338;28;20289;-68
2023/05/17 05:11:27;;;;;;;25.60;17.10;;;;;;;11.68;95.74;100094.91;4178691;28;20234;-67
2023/05/17 05:13:53;;;;;;;23.90;15.83;;;;;;;11.65;96.02;100110.66;4214885;28;20412;-66
2023/05/17 05:16:20;;;;;;;23.23;15.20;;;;;;;11.73;95.92;100105.28;4215582;28;20283;-65
2023/05/17 05:18:46;;;;;;;24.13;16.17;;;;;;;11.64;95.40;100108.97;4202755;28;20245;-66
2023/05/17 05:21:13;;;;;;;21.23;14.47;;;;;;;11.61;96.00;100107.44;4201932;28;20236;-67
2023/05/17 05:23:40;;;;;;;21.83;14.27;;;;;;;11.58;96.14;100110.50;4229513;28;20237;-66
2023/05/17 05:26:07;;;;;;;18.73;13.53;;;;;;;11.60;95.90;100103.03;4238414;28;20235;-67
2023/05/17 05:28:33;;;;;;;20.80;13.77;;;;;;;11.62;95.85;100092.03;4250248;28;20233;-67
2023/05/17 05:31:00;;;;;;;19.53;13.53;;;;;;;11.62;95.84;100100.16;4229269;28;20270;-67
2023/05/17 05:33:26;;;;;;;17.90;13.10;;;;;;;11.55;95.74;100105.38;4195810;28;21925;-67
2023/05/17 05:35:53;;;;;;;19.13;13.83;;;;;;;11.73;95.83;100100.72;4260151;28;22636;-68
2023/05/17 05:38:22;;;;;;;15.80;12.03;;;;;;;11.70;95.74;100095.63;4225139;28;20335;-65
2023/05/17 05:40:49;;;;;;;16.63;12.03;;;;;;;11.66;94.86;100080.69;4223818;28;22180;-63
2023/05/17 05:43:15;;;;;;;16.40;12.03;;;;;;;11.61;95.38;100063.22;4201963;28;20280;-63
2023/05/17 05:45:45;;;;;;;16.43;11.77;;;;;;;11.63;95.51;100047.66;4217664;28;20309;-64
2023/05/17 05:48:12;;;;;;;15.17;11.53;;;;;;;11.71;95.49;100056.66;4213053;28;20249;-66
2023/05/17 05:50:43;;;;;;;16.07;11.33;;;;;;;11.79;94.93;100058.53;4205876;28;20237;-65
2023/05/17 05:53:12;;;;;;;17.60;12.50;;;;;;;11.77;95.28;100062.41;4201440;28;20331;-66
2023/05/17 05:55:45;;;;;;;19.93;12.90;;;;;;;11.76;95.41;100069.72;4200958;28;20239;-65
2023/05/17 05:58:11;;;;;;;21.67;12.63;;;;;;;11.74;94.56;100071.75;4209040;28;20253;-62
2023/05/17 06:00:38;;;;;;;19.43;12.43;;;;;;;11.73;95.03;100081.75;4214748;28;20232;-61
2023/05/17 06:03:05;;;;;;;23.23;13.77;;;;;;;11.85;95.27;100087.72;4211134;28;20232;-63
2023/05/17 06:05:31;;;;;;;24.87;14.10;;;;;;;11.80;94.29;100098.19;4209365;28;20775;-64
2023/05/17 06:07:58;;;;;;;28.33;14.20;;;;;;;11.73;94.39;100099.84;4209710;28;20287;-64
2023/05/17 06:10:25;;;;;;;27.53;14.70;;;;;;;11.78;94.57;100104.81;4212610;28;20287;-61
2023/05/17 06:12:52;;;;;;;35.93;16.97;;;;;;;11.76;94.57;100104.97;4214188;28;21419;-64
2023/05/17 06:15:18;;;;;;;32.40;16.67;;;;;;;11.77;95.00;100105.81;4211357;28;21257;-61
2023/05/17 06:17:45;;;;;;;29.87;14.80;;;;;;;11.80;94.70;100113.63;4205378;28;20970;-62
2023/05/17 06:20:12;;;;;;;21.80;13.00;;;;;;;11.81;94.57;100112.63;4209650;28;20369;-64
2023/05/17 06:22:38;;;;;;;19.93;12.23;;;;;;;11.79;94.27;100120.91;4221374;28;20231;-65
2023/05/17 06:25:05;;;;;;;18.77;11.87;;;;;;;11.80;94.61;100119.88;4209687;28;20341;-66
2023/05/17 06:27:32;;;;;;;16.37;11.63;;;;;;;11.66;95.03;100125.94;4217872;28;20248;-66
2023/05/17 06:29:59;;;;;;;16.57;11.70;;;;;;;11.65;94.81;100118.81;4204417;28;23382;-65
2023/05/17 06:32:26;;;;;;;18.47;11.97;;;;;;;11.84;95.07;100117.69;4215626;28;20239;-65
2023/05/17 06:34:54;;;;;;;15.70;11.73;;;;;;;11.89;94.60;100116.19;4209611;28;21506;-65
2023/05/17 06:37:20;;;;;;;15.77;11.70;;;;;;;11.89;94.17;100123.50;4205932;28;21059;-65
2023/05/17 06:39:49;;;;;;;14.47;11.00;;;;;;;11.85;93.95;100127.53;4204469;28;20610;-66
2023/05/17 06:42:25;;;;;;;15.13;11.47;;;;;;;11.80;94.08;100138.88;4210952;28;20310;-65
2023/05/17 06:44:51;;;;;;;14.73;11.90;;;;;;;11.79;93.79;100141.75;4215511;28;20247;-64
2023/05/17 06:47:18;;;;;;;15.93;11.77;;;;;;;11.73;94.21;100159.53;4205941;28;20266;-63
2023/05/17 06:49:44;;;;;;;19.97;13.17;;;;;;;11.64;94.80;100157.78;4212224;28;20307;-67
2023/05/17 06:52:11;;;;;;;17.40;13.17;;;;;;;11.74;95.14;100153.09;4218569;28;20776;-65
2023/05/17 06:54:38;;;;;;;17.90;12.73;;;;;;;11.67;94.86;100155.59;4229651;28;20236;-63
2023/05/17 06:57:04;;;;;;;15.87;11.97;;;;;;;11.79;95.21;100163.44;4216175;28;20228;-65
2023/05/17 06:59:31;;;;;;;17.03;13.00;;;;;;;11.87;94.75;100156.19;4216350;28;20337;-64
2023/05/17 07:02:00;;;;;;;15.33;11.60;;;;;;;11.82;94.36;100161.25;4204536;28;20504;-66
2023/05/17 07:04:27;;;;;;;15.97;12.07;;;;;;;11.84;94.59;100150.25;4214855;28;22207;-63
2023/05/17 07:06:54;;;;;;;16.70;12.57;;;;;;;11.84;94.37;100159.25;4209847;28;23565;-65
2023/05/17 07:09:20;;;;;;;17.13;11.20;;;;;;;11.89;94.28;100153.34;4212139;28;21752;-65
2023/05/17 07:11:47;;;;;;;16.53;11.90;;;;;;;11.85;94.43;100157.38;4208912;28;23240;-65
2023/05/17 07:14:13;;;;;;;16.23;11.87;;;;;;;11.93;94.26;100156.56;4198454;28;20232;-65
2023/05/17 07:16:40;;;;;;;18.33;11.47;;;;;;;11.91;94.34;100159.44;4202391;28;20740;-67
2023/05/17 07:19:07;;;;;;;18.37;12.67;;;;;;;11.92;94.32;100161.13;4225805;28;20259;-67
2023/05/17 07:21:34;;;;;;;19.10;13.07;;;;;;;11.97;94.32;100160.69;4201861;28;20449;-63
2023/05/17 07:24:01;;;;;;;16.23;11.53;;;;;;;11.92;94.20;100163.00;4214795;28;20314;-65
2023/05/17 07:26:27;;;;;;;16.53;11.73;;;;;;;11.87;94.09;100158.91;4209316;28;20303;-65
2023/05/17 07:28:54;;;;;;;16.50;11.87;;;;;;;11.88;94.26;100157.91;4207917;28;20240;-67
2023/05/17 07:31:21;;;;;;;16.83;11.87;;;;;;;11.84;94.45;100153.81;4216285;28;20941;-63
2023/05/17 07:33:47;;;;;;;18.30;12.40;;;;;;;11.93;94.90;100159.28;4207208;28;20287;-66
2023/05/17 07:36:14;;;;;;;18.73;12.23;;;;;;;12.07;94.44;100153.25;4210542;28;20320;-66
2023/05/17 07:38:40;;;;;;;16.80;12.10;;;;;;;12.04;93.81;100161.72;4215009;28;20896;-67
2023/05/17 07:41:12;;;;;;;17.90;12.40;;;;;;;12.00;93.88;100158.50;4201663;28;20240;-66
2023/05/17 07:43:39;;;;;;;18.57;12.90;;;;;;;12.05;93.88;100175.13;4206215;28;20535;-64
2023/05/17 07:46:05;;;;;;;14.30;10.43;;;;;;;12.03;93.10;100171.75;4207149;28;20227;-66
2023/05/17 07:48:32;;;;;;;15.13;10.73;;;;;;;11.98;93.83;100175.94;4216255;28;21295;-65
2023/05/17 07:50:59;;;;;;;14.57;10.87;;;;;;;12.05;93.43;100175.13;4207201;28;20249;-64
2023/05/17 07:53:26;;;;;;;13.20;9.70;;;;;;;12.02;93.70;100180.00;4218946;28;20246;-64
2023/05/17 07:55:52;;;;;;;14.67;9.43;;;;;;;12.01;92.98;100184.59;4219131;28;22032;-67
2023/05/17 07:58:19;;;;;;;13.77;9.50;;;;;;;11.89;93.11;100183.19;4219511;28;20300;-67
2023/05/17 08:00:45;;;;;;;16.70;9.47;;;;;;;11.97;94.00;100185.94;4209644;28;20244;-65
2023/05/17 08:03:12;;;;;;;13.23;9.10;;;;;;;11.99;93.06;100183.91;4214141;28;23396;-67
2023/05/17 08:05:42;;;;;;;13.13;8.57;;;;;;;11.96;92.77;100188.78;4212852;28;20240;-66
2023/05/17 08:08:09;;;;;;;12.13;8.27;;;;;;;11.89;92.55;100184.00;4211158;28;20375;-64
2023/05/17 08:10:36;;;;;;;11.07;8.43;;;;;;;12.02;93.25;100186.31;4214628;28;23427;-66
2023/05/17 08:13:04;;;;;;;11.63;8.00;;;;;;;12.02;92.13;100177.31;4226792;28;20229;-69
2023/05/17 08:15:31;;;;;;;10.87;8.23;;;;;;;11.99;92.30;100180.38;4207306;28;20353;-68
2023/05/17 08:17:58;;;;;;;9.77;7.57;;;;;;;12.05;92.20;100185.13;4221854;28;20232;-67
2023/05/17 08:20:26;;;;;;;10.73;8.50;;;;;;;12.03;92.70;100189.84;4208019;28;20244;-66
2023/05/17 08:22:53;;;;;;;11.63;7.90;;;;;;;12.09;93.05;100191.06;4220818;28;20290;-65
2023/05/17 08:25:20;;;;;;;12.73;8.33;;;;;;;12.16;93.04;100182.09;4207631;28;20239;-65
2023/05/17 08:27:47;;;;;;;10.70;7.03;;;;;;;12.30;92.63;100194.19;4225752;28;26093;-65
2023/05/17 08:30:15;;;;;;;12.37;7.63;;;;;;;12.11;92.42;100191.78;4208929;28;22132;-66
2023/05/17 08:32:55;;;;;;;9.10;7.30;;;;;;;12.22;92.68;100193.34;4223880;28;20318;-64
2023/05/17 08:35:22;;;;;;;8.73;7.30;;;;;;;12.29;92.80;100192.50;4217711;28;20235;-67
2023/05/17 08:37:50;;;;;;;8.00;6.03;;;;;;;12.10;91.43;100196.34;4243155;28;20358;-68
2023/05/17 08:40:19;;;;;;;8.40;6.77;;;;;;;12.05;91.51;100194.09;4216319;28;20239;-65
2023/05/17 08:42:47;;;;;;;10.07;6.73;;;;;;;12.10;91.97;100206.34;4212603;28;20241;-67
2023/05/17 08:45:14;;;;;;;8.50;6.93;;;;;;;12.11;92.45;100208.88;4213643;28;20289;-68
2023/05/17 08:47:42;;;;;;;11.23;7.40;;;;;;;12.24;92.44;100210.28;4208859;28;20243;-64
2023/05/17 08:50:10;;;;;;;11.40;7.27;;;;;;;12.12;90.80;100220.63;4219614;28;21450;-70
2023/05/17 08:52:36;;;;;;;10.33;7.87;;;;;;;12.07;91.52;100225.66;4208383;28;21195;-67
2023/05/17 08:55:05;;;;;;;9.57;7.07;;;;;;;12.09;91.73;100237.19;4210628;28;23507;-65
2023/05/17 08:57:33;;;;;;;9.03;6.77;;;;;;;11.96;90.57;100235.75;4207832;28;21233;-67
2023/05/17 08:59:59;;;;;;;10.27;7.53;;;;;;;11.97;91.22;100232.03;4206208;28;21698;-67
2023/05/17 09:02:28;;;;;;;12.67;8.30;;;;;;;12.01;91.21;100222.59;4212631;28;20282;-65
2023/05/17 09:04:56;;;;;;;10.53;8.20;;;;;;;11.91;91.46;100220.97;4200980;28;21452;-66
2023/05/17 09:07:23;;;;;;;13.87;9.27;;;;;;;11.67;91.44;100227.97;4216291;28;20337;-66
2023/05/17 09:09:51;;;;;;;15.10;9.40;;;;;;;11.77;91.75;100225.13;4217895;28;21762;-65
2023/05/17 09:12:19;;;;;;;12.20;9.20;;;;;;;11.80;91.62;100236.50;4205669;28;20229;-67
2023/05/17 09:14:48;;;;;;;16.63;10.10;;;;;;;11.67;92.39;100239.63;4199260;28;20994;-65
2023/05/17 09:17:19;;;;;;;14.73;10.10;;;;;;;11.84;91.62;100226.19;4216692;28;20273;-65
2023/05/17 09:19:47;;;;;;;14.60;10.27;;;;;;;11.94;91.36;100223.34;4195486;28;20246;-64
2023/05/17 09:22:17;;;;;;;16.77;11.47;;;;;;;12.32;91.38;100230.19;4214650;28;20240;-65
2023/05/17 09:24:44;;;;;;;13.53;9.93;;;;;;;12.24;89.59;100221.13;4211937;28;20227;-64
2023/05/17 09:27:15;;;;;;;15.70;9.90;;;;;;;12.15;90.23;100229.28;4225934;28;20286;-67
2023/05/17 09:29:44;;;;;;;17.80;11.33;;;;;;;11.95;90.28;100234.06;4204012;28;22426;-65
2023/05/17 09:32:15;;;;;;;16.27;11.00;;;;;;;11.79;90.46;100237.50;4223207;28;20244;-66
2023/05/17 09:34:44;;;;;;;14.63;10.73;;;;;;;11.67;91.56;100247.78;4217887;28;20331;-68
2023/05/17 09:37:13;;;;;;;18.90;11.80;;;;;;;11.64;91.34;100245.41;4214362;28;21272;-69
2023/05/17 09:39:40;;;;;;;19.10;11.43;;;;;;;11.64;91.15;100252.66;4216992;28;21526;-66
2023/05/17 09:42:07;;;;;;;17.63;10.73;;;;;;;11.36;91.80;100253.69;4206053;28;20239;-66
2023/05/17 09:44:56;;;;;;;21.63;12.80;;;;;;;11.44;92.46;100250.16;4206948;28;20254;-66
2023/05/17 09:47:27;;;;;;;21.70;12.20;;;;;;;11.36;91.58;100250.97;4209946;28;20242;-67
2023/05/17 09:49:59;;;;;;;17.40;11.70;;;;;;;11.42;91.10;100252.16;4219568;28;20228;-66
2023/05/17 09:52:35;;;;;;;19.70;12.37;;;;;;;11.46;91.07;100253.56;4209152;28;20242;-67
2023/05/17 09:55:02;;;;;;;14.10;10.83;;;;;;;11.27;90.79;100260.03;4203596;28;20244;-68
2023/05/17 09:57:36;;;;;;;16.73;11.20;;;;;;;11.41;91.15;100270.31;4212307;28;20318;-67
2023/05/17 10:00:12;;;;;;;16.73;11.53;;;;;;;11.41;91.21;100269.44;4201536;28;20282;-69
2023/05/17 10:02:42;;;;;;;19.97;11.30;;;;;;;11.29;91.10;100268.00;4201568;28;20587;-67
2023/05/17 10:05:11;;;;;;;18.13;11.20;;;;;;;11.28;90.70;100266.28;4214897;28;20547;-67
2023/05/17 10:07:38;;;;;;;20.10;11.57;;;;;;;11.22;90.86;100274.03;4206273;28;20267;-68
2023/05/17 10:10:05;;;;;;;21.07;11.80;;;;;;;11.20;90.27;100272.50;4220090;28;25250;-66
2023/05/17 10:12:37;;;;;;;25.53;11.77;;;;;;;11.17;90.79;100265.53;4202477;28;20232;-66
2023/05/17 10:15:04;;;;;;;25.23;12.50;;;;;;;10.99;90.31;100279.06;4198369;28;20237;-66
2023/05/17 10:17:31;;;;;;;21.20;11.57;;;;;;;10.98;89.92;100258.41;4211971;28;20488;-68
2023/05/17 10:19:58;;;;;;;22.80;11.40;;;;;;;11.11;89.64;100276.97;4193564;28;20458;-66
2023/05/17 10:22:26;;;;;;;18.70;10.50;;;;;;;11.24;89.75;100269.31;4198706;28;20675;-65
2023/05/17 10:24:54;;;;;;;21.97;10.90;;;;;;;11.29;88.81;100276.13;4218716;28;20308;-67
2023/05/17 10:27:22;;;;;;;22.63;11.07;;;;;;;11.50;89.11;100281.22;4214602;28;20241;-67
2023/05/17 10:29:50;;;;;;;20.57;10.97;;;;;;;11.67;88.72;100287.59;4210902;28;20294;-66
2023/05/17 10:32:20;;;;;;;20.27;11.43;;;;;;;11.60;88.65;100286.53;4197562;28;20305;-54
2023/05/17 10:34:49;;;;;;;24.00;11.57;;;;;;;11.62;88.25;100290.78;4198876;28;20626;-68
2023/05/17 10:37:32;;;;;;;21.17;10.13;;;;;;;11.62;87.94;100290.78;4201924;28;20282;-68
2023/05/17 10:39:59;;;;;;;20.70;9.93;;;;;;;11.65;88.21;100293.19;4210122;28;20269;-71
2023/05/17 10:42:26;;;;;;;21.67;10.40;;;;;;;11.57;88.00;100277.69;4206636;28;20244;-67
2023/05/17 10:44:53;;;;;;;20.03;9.40;;;;;;;11.55;86.51;100279.75;4205040;28;20246;-69
2023/05/17 10:47:20;;;;;;;18.30;9.60;;;;;;;11.53;87.38;100279.03;4209151;28;21188;-66
2023/05/17 10:49:46;;;;;;;22.63;9.10;;;;;;;11.60;86.69;100290.09;4208610;28;20236;-65
2023/05/17 10:52:18;;;;;;;17.77;8.97;;;;;;;11.54;86.73;100291.59;4224472;28;20239;-72
2023/05/17 10:54:47;;;;;;;19.27;9.07;;;;;;;11.60;86.84;100291.97;4211845;28;20969;-68
2023/05/17 10:57:31;;;;;;;20.10;9.00;;;;;;;11.82;86.29;100296.03;4224461;28;21185;-67
2023/05/17 11:00:19;;;;;;;18.47;8.77;;;;;;;11.96;86.58;100290.03;4212136;28;20418;-69
2023/05/17 11:02:47;;;;;;;16.53;8.70;;;;;;;11.97;86.39;100289.00;4197093;28;20367;-67
2023/05/17 11:05:25;;;;;;;18.13;9.10;;;;;;;12.15;86.06;100278.13;4219582;28;20235;-70
2023/05/17 11:08:15;;;;;;;16.87;8.47;;;;;;;12.33;86.05;100286.19;4214474;28;20516;-69
2023/05/17 11:11:08;;;;;;;19.83;7.33;;;;;;;12.17;84.95;100294.22;4216135;28;21982;-68
2023/05/17 11:13:53;;;;;;;15.90;7.00;;;;;;;11.78;85.90;100300.94;4223845;28;20298;-70
2023/05/17 11:16:22;;;;;;;16.47;6.00;;;;;;;11.98;85.29;100298.03;4221404;28;20231;-69